Observation data for Abernathy on 11/19/2019      Previous  Date  Next       Current Mesonet Observations  Soil Data  Daily Summary Page  Observations in Plain Language
KARS 190600Z 21004KT 07/M01 A2999 RMK A01 T00731008  RH  057%=      5-min Rain = 0
KARS 190605Z 22004KT 08/M01 A2999 RMK A01 T00751008  RH  056%=      5-min Rain = 0
KARS 190610Z 22003KT 07/M01 A2999 RMK A01 T00701008  RH  058%=      5-min Rain = 0
KARS 190615Z 21003KT 07/M01 A2999 RMK A01 T00691008  RH  059%=      5-min Rain = 0
KARS 190620Z 22004KT 07/M01 A2999 RMK A01 T00661007  RH  060%=      5-min Rain = 0
KARS 190625Z 22004KT 07/M01 A2999 RMK A01 T00691006  RH  059%=      5-min Rain = 0
KARS 190630Z 22003KT 07/M01 A2999 RMK A01 T00691006  RH  059%=      5-min Rain = 0
KARS 190635Z 23003KT 07/M01 A2999 RMK A01 T00731006  RH  058%=      5-min Rain = 0
KARS 190640Z 22002KT 07/M01 A2999 RMK A01 T00711006  RH  059%=      5-min Rain = 0
KARS 190645Z 19001KT 06/M01 A2999 RMK A01 T00641009  RH  060%=      5-min Rain = 0
KARS 190650Z 18002KT 06/M01 A2999 RMK A01 T00571011  RH  062%=      5-min Rain = 0
KARS 190655Z 18001KT 05/M01 A2999 RMK A01 T00541011  RH  063%=      5-min Rain = 0
KARS 190700Z 18001KT 05/M01 A2999 RMK A01 T00511014  RH  064%=      5-min Rain = 0
KARS 190705Z 18000KT 05/M01 A2999 RMK A01 T00541010  RH  064%=      5-min Rain = 0
KARS 190710Z 19001KT 06/M01 A2999 RMK A01 T00551011  RH  063%=      5-min Rain = 0
KARS 190715Z 22001KT 05/M01 A2999 RMK A01 T00541012  RH  063%=      5-min Rain = 0
KARS 190720Z 23001KT 05/M02 A2999 RMK A01 T00481015  RH  064%=      5-min Rain = 0
KARS 190725Z 27002KT 04/M02 A2999 RMK A01 T00441015  RH  066%=      5-min Rain = 0
KARS 190730Z 27002KT 04/M01 A2999 RMK A01 T00411013  RH  068%=      5-min Rain = 0
KARS 190735Z 28002KT 04/M01 A2999 RMK A01 T00441014  RH  067%=      5-min Rain = 0
KARS 190740Z 29002KT 04/M02 A2999 RMK A01 T00431015  RH  066%=      5-min Rain = 0
KARS 190745Z 30002KT 04/M02 A2999 RMK A01 T00431017  RH  066%=      5-min Rain = 0
KARS 190750Z 30002KT 04/M02 A2999 RMK A01 T00411016  RH  067%=      5-min Rain = 0
KARS 190755Z 29002KT 04/M02 A2999 RMK A01 T00401017  RH  067%=      5-min Rain = 0
KARS 190800Z 29004KT 04/M02 A2999 RMK A01 T00401015  RH  068%=      5-min Rain = 0
KARS 190805Z 28004KT 04/M01 A2999 RMK A01 T00421013  RH  068%=      5-min Rain = 0
KARS 190810Z 26004KT 04/M01 A30 RMK A01 T00401013  RH  069%=      5-min Rain = 0
KARS 190815Z 26004KT 04/M01 A30 RMK A01 T00381013  RH  070%=      5-min Rain = 0
KARS 190820Z 26004KT 04/M01 A30 RMK A01 T00431012  RH  068%=      5-min Rain = 0
KARS 190825Z 26004KT 04/M01 A30 RMK A01 T00401012  RH  069%=      5-min Rain = 0
KARS 190830Z 26004KT 04/M01 A30 RMK A01 T00391012  RH  070%=      5-min Rain = 0
KARS 190835Z 27004KT 04/M01 A30 RMK A01 T00401012  RH  069%=      5-min Rain = 0
KARS 190840Z 27004KT 04/M01 A30 RMK A01 T00391013  RH  070%=      5-min Rain = 0
KARS 190845Z 27005KT 04/M01 A30 RMK A01 T00391012  RH  070%=      5-min Rain = 0
KARS 190850Z 27005KT 04/M01 A30 RMK A01 T00381012  RH  071%=      5-min Rain = 0
KARS 190855Z 27005KT 04/M01 A30 RMK A01 T00401012  RH  070%=      5-min Rain = 0
KARS 190900Z 28005KT 04/M01 A30 RMK A01 T00411011  RH  069%=      5-min Rain = 0
KARS 190905Z 28005KT 04/M01 A30 RMK A01 T00421010  RH  069%=      5-min Rain = 0
KARS 190910Z 28005KT 04/M01 A30 RMK A01 T00441009  RH  069%=      5-min Rain = 0
KARS 190915Z 29004KT 04/M01 A30 RMK A01 T00411013  RH  068%=      5-min Rain = 0
KARS 190920Z 29004KT 04/M01 A30 RMK A01 T00371013  RH  070%=      5-min Rain = 0
KARS 190925Z 30004KT 04/M01 A30 RMK A01 T00401012  RH  069%=      5-min Rain = 0
KARS 190930Z 32003KT 04/M02 A30 RMK A01 T00351018  RH  069%=      5-min Rain = 0
KARS 190935Z 32004KT 04/M02 A30 RMK A01 T00351016  RH  070%=      5-min Rain = 0
KARS 190940Z 33004KT 04/M02 A30 RMK A01 T00361017  RH  069%=      5-min Rain = 0
KARS 190945Z 35005KT 03/M02 A30 RMK A01 T00331018  RH  070%=      5-min Rain = 0
KARS 190950Z 35005KT 03/M02 A30 RMK A01 T00321016  RH  071%=      5-min Rain = 0
KARS 190955Z 35005KT 03/M02 A30 RMK A01 T00311017  RH  071%=      5-min Rain = 0
KARS 191000Z 35005KT 03/M02 A2999 RMK A01 T00291017  RH  073%=      5-min Rain = 0
KARS 191005Z 35005KT 03/M02 A2999 RMK A01 T00281017  RH  073%=      5-min Rain = 0
KARS 191010Z 35006KT 02/M02 A2999 RMK A01 T00241019  RH  074%=      5-min Rain = 0
KARS 191015Z 00006KT 02/M02 A2999 RMK A01 T00231019  RH  074%=      5-min Rain = 0
KARS 191020Z 00006KT 03/M02 A2999 RMK A01 T00271018  RH  073%=      5-min Rain = 0
KARS 191025Z 00006KT 03/M02 A2999 RMK A01 T00281019  RH  072%=      5-min Rain = 0
KARS 191030Z 00006KT 03/M02 A2999 RMK A01 T00281019  RH  072%=      5-min Rain = 0
KARS 191035Z 01007KT 03/M02 A2998 RMK A01 T00281019  RH  071%=      5-min Rain = 0
KARS 191040Z 01006KT 03/M02 A2998 RMK A01 T00281020  RH  072%=      5-min Rain = 0
KARS 191045Z 02006KT 03/M02 A2998 RMK A01 T00301018  RH  071%=      5-min Rain = 0
KARS 191050Z 02006KT 03/M02 A2998 RMK A01 T00321019  RH  070%=      5-min Rain = 0
KARS 191055Z 01003KT 03/M02 A2998 RMK A01 T00311020  RH  070%=      5-min Rain = 0
KARS 191100Z 26003G9KT 02/M02 A2998 RMK A01 T00241020  RH  074%=      5-min Rain = 0
KARS 191105Z 01001KT 02/M02 A2998 RMK A01 T00231017  RH  076%=      5-min Rain = 0
KARS 191110Z 29001KT 03/M02 A2998 RMK A01 T00251017  RH  074%=      5-min Rain = 0
KARS 191115Z 26004G10KT 03/M02 A2998 RMK A01 T00271018  RH  073%=      5-min Rain = 0
KARS 191120Z 26006G11KT 02/M02 A2998 RMK A01 T00231015  RH  076%=      5-min Rain = 0
KARS 191125Z 26005G10KT 03/M02 A2998 RMK A01 T00261015  RH  075%=      5-min Rain = 0
KARS 191130Z 26006KT 02/M02 A2998 RMK A01 T00241015  RH  076%=      5-min Rain = 0
KARS 191135Z 27007KT 02/M02 A2998 RMK A01 T00181016  RH  079%=      5-min Rain = 0
KARS 191140Z 27007KT 01/M02 A2998 RMK A01 T00141017  RH  080%=      5-min Rain = 0
KARS 191145Z 28006KT 02/M02 A2998 RMK A01 T00161016  RH  080%=      5-min Rain = 0
KARS 191150Z 28005KT 02/M02 A2998 RMK A01 T00171018  RH  078%=      5-min Rain = 0
KARS 191155Z 27005KT 02/M02 A2998 RMK A01 T00161018  RH  079%=      5-min Rain = 0
KARS 191200Z 28005KT 02/M02 A2998 RMK A01 T00191018  RH  078%=      5-min Rain = 0
KARS 191205Z 28003KT 02/M02 A2998 RMK A01 T00171019  RH  078%=      5-min Rain = 0
KARS 191210Z 28003KT 02/M02 A2998 RMK A01 T00211017  RH  077%=      5-min Rain = 0
KARS 191215Z 28002KT 02/M02 A2997 RMK A01 T00231017  RH  076%=      5-min Rain = 0
KARS 191220Z 30003KT 02/M02 A2997 RMK A01 T00221020  RH  075%=      5-min Rain = 0
KARS 191225Z 32004KT 02/M02 A2998 RMK A01 T00191021  RH  075%=      5-min Rain = 0
KARS 191230Z 33004KT 02/M02 A2998 RMK A01 T00211021  RH  075%=      5-min Rain = 0
KARS 191235Z 32004KT 02/M02 A2998 RMK A01 T00221020  RH  074%=      5-min Rain = 0
KARS 191240Z 31004KT 03/M02 A2998 RMK A01 T00251019  RH  073%=      5-min Rain = 0
KARS 191245Z 32004KT 03/M02 A2998 RMK A01 T00261021  RH  071%=      5-min Rain = 0
KARS 191250Z 32003KT 03/M02 A2998 RMK A01 T00261022  RH  071%=      5-min Rain = 0
KARS 191255Z 34002KT 03/M02 A2997 RMK A01 T00271021  RH  071%=      5-min Rain = 0
KARS 191300Z 34001KT 03/M02 A2997 RMK A01 T00281021  RH  071%=      5-min Rain = 0
KARS 191305Z 34001KT 03/M02 A2997 RMK A01 T00291020  RH  071%=      5-min Rain = 0
KARS 191310Z 34000KT 03/M02 A2997 RMK A01 T00331019  RH  069%=      5-min Rain = 0
KARS 191315Z 34004KT 02/M02 A2997 RMK A01 T00231024  RH  071%=      5-min Rain = 0
KARS 191320Z 00003KT 02/M02 A2997 RMK A01 T00201023  RH  074%=      5-min Rain = 0
KARS 191325Z 36002KT 02/M02 A2997 RMK A01 T00241021  RH  073%=      5-min Rain = 0
KARS 191330Z 35002KT 03/M02 A2997 RMK A01 T00271021  RH  071%=      5-min Rain = 0
KARS 191335Z 00001KT 03/M02 A2997 RMK A01 T00291019  RH  071%=      5-min Rain = 0
KARS 191340Z 04001KT 03/M02 A2997 RMK A01 T00321019  RH  070%=      5-min Rain = 0
KARS 191345Z 04003KT 03/M02 A2997 RMK A01 T00341018  RH  069%=      5-min Rain = 0
KARS 191350Z 03003KT 03/M02 A2997 RMK A01 T00321018  RH  070%=      5-min Rain = 0
KARS 191355Z 02002KT 03/M02 A2997 RMK A01 T00331016  RH  071%=      5-min Rain = 0
KARS 191400Z 04003KT 04/M02 A2997 RMK A01 T00351015  RH  070%=      5-min Rain = 0
KARS 191405Z 04003KT 04/M01 A2997 RMK A01 T00421012  RH  069%=      5-min Rain = 0
KARS 191410Z 35002KT 05/M01 A2997 RMK A01 T00471009  RH  068%=      5-min Rain = 0
KARS 191415Z 34002KT 05/M01 A2997 RMK A01 T00491006  RH  068%=      5-min Rain = 0
KARS 191420Z 04002KT 05/00 A2997 RMK A01 T00530000  RH  070%=      5-min Rain = 0
KARS 191425Z 07003KT 07/00 A2997 RMK A01 T00650000  RH  064%=      5-min Rain = 0
KARS 191430Z 08002KT 08/00 A2997 RMK A01 T00760003  RH  061%=      5-min Rain = 0
KARS 191435Z 08000KT 09/01 A2997 RMK A01 T00880008  RH  058%=      5-min Rain = 0
KARS 191440Z 08000KT 10/01 A2997 RMK A01 T01030011  RH  054%=      5-min Rain = 0
KARS 191445Z 08001KT 12/01 A2997 RMK A01 T01150013  RH  050%=      5-min Rain = 0
KARS 191450Z 08000KT 12/01 A2997 RMK A01 T01220013  RH  048%=      5-min Rain = 0
KARS 191455Z 09000KT 13/01 A2997 RMK A01 T01310013  RH  045%=      5-min Rain = 0
KARS 191500Z 00000KT 14/01 A2997 RMK A01 T01370012  RH  043%=      5-min Rain = 0
KARS 191505Z 18001KT 13/01 A2997 RMK A01 T01340013  RH  044%=      5-min Rain = 0
KARS 191510Z 15001KT 14/02 A2997 RMK A01 T01370015  RH  044%=      5-min Rain = 0
KARS 191515Z 14002KT 14/02 A2997 RMK A01 T01380015  RH  044%=      5-min Rain = 0
KARS 191520Z 14002KT 14/02 A2997 RMK A01 T01390015  RH  044%=      5-min Rain = 0
KARS 191525Z 15003KT 14/02 A2997 RMK A01 T01400017  RH  044%=      5-min Rain = 0
KARS 191530Z 16004KT 15/02 A2997 RMK A01 T01450019  RH  043%=      5-min Rain = 0
KARS 191535Z 16004KT 15/02 A2997 RMK A01 T01490021  RH  043%=      5-min Rain = 0
KARS 191540Z 17005KT 16/03 A2997 RMK A01 T01580025  RH  041%=      5-min Rain = 0
KARS 191545Z 17008KT 17/02 A2997 RMK A01 T01650019  RH  038%=      5-min Rain = 0
KARS 191550Z 17008KT 17/02 A2997 RMK A01 T01670016  RH  037%=      5-min Rain = 0
KARS 191555Z 18009KT 17/02 A2997 RMK A01 T01700017  RH  036%=      5-min Rain = 0
KARS 191600Z 17009KT 17/02 A2997 RMK A01 T01710019  RH  036%=      5-min Rain = 0
KARS 191605Z 17010KT 18/02 A2997 RMK A01 T01770017  RH  035%=      5-min Rain = 0
KARS 191610Z 17012KT 18/01 A2997 RMK A01 T01750009  RH  033%=      5-min Rain = 0
KARS 191615Z 17012KT 18/01 A2997 RMK A01 T01770012  RH  034%=      5-min Rain = 0
KARS 191620Z 17011KT 18/01 A2998 RMK A01 T01750014  RH  034%=      5-min Rain = 0
KARS 191625Z 18011KT 18/02 A2997 RMK A01 T01780016  RH  034%=      5-min Rain = 0
KARS 191630Z 18010KT 18/02 A2997 RMK A01 T01820017  RH  033%=      5-min Rain = 0
KARS 191635Z 17011KT 18/01 A2997 RMK A01 T01820013  RH  033%=      5-min Rain = 0
KARS 191640Z 18011KT 18/01 A2997 RMK A01 T01820013  RH  033%=      5-min Rain = 0
KARS 191645Z 18010KT 19/01 A2997 RMK A01 T01860014  RH  032%=      5-min Rain = 0
KARS 191650Z 17012KT 19/01 A2996 RMK A01 T01870013  RH  032%=      5-min Rain = 0
KARS 191655Z 17010G15KT 19/01 A2996 RMK A01 T01870013  RH  031%=      5-min Rain = 0
KARS 191700Z 18010KT 19/01 A2996 RMK A01 T01890014  RH  031%=      5-min Rain = 0
KARS 191705Z 18010KT 19/01 A2996 RMK A01 T01910014  RH  031%=      5-min Rain = 0
KARS 191710Z 19010KT 19/01 A2996 RMK A01 T01910013  RH  031%=      5-min Rain = 0
KARS 191715Z 19009KT 19/01 A2996 RMK A01 T01940013  RH  030%=      5-min Rain = 0
KARS 191720Z 19010KT 19/01 A2995 RMK A01 T01930012  RH  030%=      5-min Rain = 0
KARS 191725Z 19010KT 20/01 A2995 RMK A01 T01960012  RH  030%=      5-min Rain = 0
KARS 191730Z 18010KT 20/01 A2995 RMK A01 T02000013  RH  029%=      5-min Rain = 0
KARS 191735Z 18010KT 20/01 A2995 RMK A01 T02010014  RH  029%=      5-min Rain = 0
KARS 191740Z 18011KT 21/01 A2994 RMK A01 T02060014  RH  028%=      5-min Rain = 0
KARS 191745Z 19012KT 21/01 A2994 RMK A01 T02060013  RH  028%=      5-min Rain = 0
KARS 191750Z 19013KT 21/01 A2994 RMK A01 T02080014  RH  028%=      5-min Rain = 0
KARS 191755Z 19014KT 21/01 A2994 RMK A01 T02100011  RH  027%=      5-min Rain = 0
KARS 191800Z 19014KT 21/01 A2993 RMK A01 T02080010  RH  027%=      5-min Rain = 0
KARS 191805Z 18013KT 21/01 A2993 RMK A01 T02100013  RH  027%=      5-min Rain = 0
KARS 191810Z 18012KT 21/02 A2993 RMK A01 T02100015  RH  028%=      5-min Rain = 0
KARS 191815Z 19013KT 21/01 A2993 RMK A01 T02120013  RH  027%=      5-min Rain = 0
KARS 191820Z 19013KT 22/01 A2992 RMK A01 T02170013  RH  026%=      5-min Rain = 0
KARS 191825Z 19013KT 22/01 A2992 RMK A01 T02210009  RH  025%=      5-min Rain = 0
KARS 191830Z 20013KT 22/01 A2992 RMK A01 T02240008  RH  024%=      5-min Rain = 0
KARS 191835Z 19013G18KT 23/01 A2991 RMK A01 T02260009  RH  024%=      5-min Rain = 0
KARS 191840Z 19013KT 23/01 A2991 RMK A01 T02290010  RH  024%=      5-min Rain = 0
KARS 191845Z 18014G19KT 23/01 A2991 RMK A01 T02310008  RH  023%=      5-min Rain = 0
KARS 191850Z 20015KT 23/00 A299 RMK A01 T02310004  RH  022%=      5-min Rain = 0
KARS 191855Z 19014KT 23/00 A299 RMK A01 T02330003  RH  022%=      5-min Rain = 0
KARS 191900Z 20015G21KT 24/00 A299 RMK A01 T02350002  RH  022%=      5-min Rain = 0
KARS 191905Z 20017G22KT 23/M00 A299 RMK A01 T02341002  RH  021%=      5-min Rain = 0
KARS 191910Z 19018KT 23/M00 A2989 RMK A01 T02331004  RH  021%=      5-min Rain = 0
KARS 191915Z 20018KT 24/M00 A2989 RMK A01 T02361003  RH  021%=      5-min Rain = 0
KARS 191920Z 20017KT 24/M00 A2989 RMK A01 T02351002  RH  021%=      5-min Rain = 0
KARS 191925Z 19017KT 24/M00 A2989 RMK A01 T02371002  RH  021%=      5-min Rain = 0
KARS 191930Z 20019KT 24/M00 A2988 RMK A01 T02351004  RH  021%=      5-min Rain = 0
KARS 191935Z 21018G23KT 24/M00 A2988 RMK A01 T02361001  RH  021%=      5-min Rain = 0
KARS 191940Z 20019KT 24/00 A2988 RMK A01 T023700-0  RH  021%=      5-min Rain = 0
KARS 191945Z 20017G22KT 24/00 A2988 RMK A01 T02390002  RH  021%=      5-min Rain = 0
KARS 191950Z 20017G22KT 24/00 A2987 RMK A01 T023800-0  RH  021%=      5-min Rain = 0
KARS 191955Z 19019KT 24/M00 A2987 RMK A01 T02391002  RH  021%=      5-min Rain = 0
KARS 192000Z 20018G25KT 24/M00 A2987 RMK A01 T02411002  RH  020%=      5-min Rain = 0
KARS 192005Z 21017G22KT 24/M01 A2986 RMK A01 T02401006  RH  020%=      5-min Rain = 0
KARS 192010Z 21017G22KT 24/M01 A2986 RMK A01 T02411007  RH  020%=      5-min Rain = 0
KARS 192015Z 21018G24KT 24/M01 A2985 RMK A01 T02401009  RH  019%=      5-min Rain = 0
KARS 192020Z 19019G25KT 24/M01 A2985 RMK A01 T02421008  RH  019%=      5-min Rain = 0
KARS 192025Z 20018G24KT 24/M01 A2985 RMK A01 T02401010  RH  019%=      5-min Rain = 0
KARS 192030Z 22019KT 24/M01 A2985 RMK A01 T02411010  RH  019%=      5-min Rain = 0
KARS 192035Z 21019KT 24/M01 A2985 RMK A01 T02411012  RH  019%=      5-min Rain = 0
KARS 192040Z 21017G22KT 24/M01 A2985 RMK A01 T02421011  RH  019%=      5-min Rain = 0
KARS 192045Z 20016KT 25/M01 A2985 RMK A01 T02461009  RH  019%=      5-min Rain = 0
KARS 192050Z 20018KT 24/M01 A2985 RMK A01 T02401012  RH  019%=      5-min Rain = 0
KARS 192055Z 20018KT 24/M01 A2984 RMK A01 T02411011  RH  019%=      5-min Rain = 0
KARS 192100Z 21017KT 24/M01 A2984 RMK A01 T02411009  RH  019%=      5-min Rain = 0
KARS 192105Z 20016KT 24/M01 A2984 RMK A01 T02441006  RH  019%=      5-min Rain = 0
KARS 192110Z 20015G21KT 25/M01 A2984 RMK A01 T02461006  RH  019%=      5-min Rain = 0
KARS 192115Z 19015KT 24/M01 A2984 RMK A01 T02441009  RH  019%=      5-min Rain = 0
KARS 192120Z 20013G18KT 24/M01 A2983 RMK A01 T02441007  RH  019%=      5-min Rain = 0
KARS 192125Z 20015G21KT 25/M00 A2983 RMK A01 T02461004  RH  019%=      5-min Rain = 0
KARS 192130Z 19017G22KT 25/M01 A2983 RMK A01 T02451005  RH  019%=      5-min Rain = 0
KARS 192135Z 19017KT 25/M01 A2983 RMK A01 T02461005  RH  019%=      5-min Rain = 0
KARS 192140Z 20016KT 24/M01 A2983 RMK A01 T02441005  RH  019%=      5-min Rain = 0
KARS 192145Z 19017G22KT 24/M01 A2983 RMK A01 T02421005  RH  020%=      5-min Rain = 0
KARS 192150Z 19017KT 24/M01 A2983 RMK A01 T02411007  RH  020%=      5-min Rain = 0
KARS 192155Z 20014G19KT 24/M01 A2983 RMK A01 T02421006  RH  020%=      5-min Rain = 0
KARS 192200Z 19014KT 24/M00 A2983 RMK A01 T02401001  RH  021%=      5-min Rain = 0
KARS 192205Z 19014G19KT 24/M00 A2982 RMK A01 T02411002  RH  020%=      5-min Rain = 0
KARS 192210Z 18013KT 24/M00 A2982 RMK A01 T02431003  RH  020%=      5-min Rain = 0
KARS 192215Z 18013KT 24/M00 A2983 RMK A01 T02441001  RH  020%=      5-min Rain = 0
KARS 192220Z 18015G21KT 24/M00 A2983 RMK A01 T02421004  RH  020%=      5-min Rain = 0
KARS 192225Z 19014KT 24/M01 A2982 RMK A01 T02401008  RH  020%=      5-min Rain = 0
KARS 192230Z 19014KT 24/M01 A2982 RMK A01 T02391008  RH  020%=      5-min Rain = 0
KARS 192235Z 19014KT 24/M01 A2982 RMK A01 T02391007  RH  020%=      5-min Rain = 0
KARS 192240Z 19011KT 23/M01 A2982 RMK A01 T02301007  RH  021%=      5-min Rain = 0
KARS 192245Z 19012KT 22/M01 A2982 RMK A01 T02231007  RH  022%=      5-min Rain = 0
KARS 192250Z 19012KT 22/M01 A2982 RMK A01 T02211009  RH  022%=      5-min Rain = 0
KARS 192255Z 19012KT 22/M01 A2982 RMK A01 T02201008  RH  022%=      5-min Rain = 0
KARS 192300Z 19012KT 22/M01 A2982 RMK A01 T02231009  RH  022%=      5-min Rain = 0
KARS 192305Z 19011KT 22/M01 A2982 RMK A01 T02181010  RH  022%=      5-min Rain = 0
KARS 192310Z 19010KT 21/M01 A2982 RMK A01 T02111010  RH  023%=      5-min Rain = 0
KARS 192315Z 19009KT 21/M01 A2982 RMK A01 T02051009  RH  024%=      5-min Rain = 0
KARS 192320Z 18008KT 20/M01 A2982 RMK A01 T01991010  RH  025%=      5-min Rain = 0
KARS 192325Z 17008KT 19/M01 A2982 RMK A01 T01941010  RH  025%=      5-min Rain = 0
KARS 192330Z 17009KT 19/M01 A2982 RMK A01 T01901006  RH  027%=      5-min Rain = 0
KARS 192335Z 17008KT 19/00 A2982 RMK A01 T018500-0  RH  029%=      5-min Rain = 0
KARS 192340Z 17009KT 18/01 A2982 RMK A01 T01780005  RH  032%=      5-min Rain = 0
KARS 192345Z 17009KT 17/01 A2982 RMK A01 T01730008  RH  033%=      5-min Rain = 0
KARS 192350Z 17009KT 17/01 A2982 RMK A01 T01690010  RH  035%=      5-min Rain = 0
KARS 192355Z 17009KT 17/01 A2982 RMK A01 T01690012  RH  035%=      5-min Rain = 0
KARS 200000Z 16008KT 17/01 A2982 RMK A01 T01650011  RH  036%=      5-min Rain = 0
KARS 200005Z 17008KT 16/01 A2982 RMK A01 T01590011  RH  037%=      5-min Rain = 0
KARS 200010Z 17007KT 15/01 A2983 RMK A01 T01490010  RH  039%=      5-min Rain = 0
KARS 200015Z 17008KT 14/01 A2983 RMK A01 T01390010  RH  042%=      5-min Rain = 0
KARS 200020Z 17009KT 15/01 A2983 RMK A01 T01480013  RH  041%=      5-min Rain = 0
KARS 200025Z 17009KT 15/01 A2983 RMK A01 T01530013  RH  039%=      5-min Rain = 0
KARS 200030Z 16008KT 15/01 A2983 RMK A01 T01510012  RH  039%=      5-min Rain = 0
KARS 200035Z 16007KT 15/01 A2983 RMK A01 T01490012  RH  040%=      5-min Rain = 0
KARS 200040Z 16007KT 15/01 A2983 RMK A01 T01450011  RH  040%=      5-min Rain = 0
KARS 200045Z 17006KT 14/01 A2983 RMK A01 T01390010  RH  042%=      5-min Rain = 0
KARS 200050Z 17006KT 13/01 A2983 RMK A01 T01280009  RH  045%=      5-min Rain = 0
KARS 200055Z 17007KT 12/01 A2983 RMK A01 T01210008  RH  047%=      5-min Rain = 0
KARS 200100Z 18008KT 12/01 A2983 RMK A01 T01200011  RH  048%=      5-min Rain = 0
KARS 200105Z 18009KT 12/01 A2983 RMK A01 T01230012  RH  047%=      5-min Rain = 0
KARS 200110Z 18009KT 12/01 A2983 RMK A01 T01220013  RH  048%=      5-min Rain = 0
KARS 200115Z 18009KT 12/01 A2983 RMK A01 T01230013  RH  048%=      5-min Rain = 0
KARS 200120Z 17009KT 12/01 A2983 RMK A01 T01230014  RH  048%=      5-min Rain = 0
KARS 200125Z 17008KT 12/01 A2983 RMK A01 T01220013  RH  048%=      5-min Rain = 0
KARS 200130Z 17007KT 12/01 A2983 RMK A01 T01200013  RH  049%=      5-min Rain = 0
KARS 200135Z 18008KT 11/01 A2983 RMK A01 T01130011  RH  050%=      5-min Rain = 0
KARS 200140Z 18008KT 10/01 A2983 RMK A01 T01030010  RH  053%=      5-min Rain = 0
KARS 200145Z 18008KT 10/01 A2984 RMK A01 T01000012  RH  055%=      5-min Rain = 0
KARS 200150Z 18008KT 10/01 A2984 RMK A01 T00990013  RH  056%=      5-min Rain = 0
KARS 200155Z 18008KT 10/01 A2984 RMK A01 T00970012  RH  056%=      5-min Rain = 0
KARS 200200Z 18008KT 10/01 A2984 RMK A01 T00950012  RH  057%=      5-min Rain = 0
KARS 200205Z 19008KT 10/01 A2984 RMK A01 T00950012  RH  057%=      5-min Rain = 0
KARS 200210Z 19009KT 10/01 A2984 RMK A01 T00970014  RH  057%=      5-min Rain = 0
KARS 200215Z 19009KT 10/02 A2984 RMK A01 T00990016  RH  057%=      5-min Rain = 0
KARS 200220Z 19009KT 10/02 A2984 RMK A01 T00970015  RH  058%=      5-min Rain = 0
KARS 200225Z 19009KT 10/02 A2984 RMK A01 T00970017  RH  058%=      5-min Rain = 0
KARS 200230Z 19009KT 11/02 A2984 RMK A01 T01050020  RH  056%=      5-min Rain = 0
KARS 200235Z 19009KT 11/02 A2984 RMK A01 T01110020  RH  054%=      5-min Rain = 0
KARS 200240Z 18010KT 11/02 A2984 RMK A01 T01130021  RH  054%=      5-min Rain = 0
KARS 200245Z 18010KT 11/02 A2984 RMK A01 T01140021  RH  054%=      5-min Rain = 0
KARS 200250Z 19009KT 11/02 A2984 RMK A01 T01140021  RH  054%=      5-min Rain = 0
KARS 200255Z 19009KT 11/02 A2984 RMK A01 T01130020  RH  054%=      5-min Rain = 0
KARS 200300Z 18009KT 11/02 A2984 RMK A01 T01130020  RH  054%=      5-min Rain = 0
KARS 200305Z 18010KT 12/02 A2984 RMK A01 T01160020  RH  052%=      5-min Rain = 0
KARS 200310Z 18009KT 12/02 A2984 RMK A01 T01170020  RH  052%=      5-min Rain = 0
KARS 200315Z 18009KT 11/02 A2984 RMK A01 T01140020  RH  053%=      5-min Rain = 0
KARS 200320Z 18009KT 11/02 A2983 RMK A01 T01110020  RH  054%=      5-min Rain = 0
KARS 200325Z 18008KT 11/02 A2983 RMK A01 T01070019  RH  055%=      5-min Rain = 0
KARS 200330Z 18009KT 10/02 A2984 RMK A01 T01040020  RH  056%=      5-min Rain = 0
KARS 200335Z 18009KT 10/02 A2984 RMK A01 T01030019  RH  057%=      5-min Rain = 0
KARS 200340Z 18009KT 10/02 A2984 RMK A01 T01010019  RH  058%=      5-min Rain = 0
KARS 200345Z 18009KT 10/02 A2984 RMK A01 T00990020  RH  059%=      5-min Rain = 0
KARS 200350Z 18009KT 10/02 A2984 RMK A01 T00970020  RH  059%=      5-min Rain = 0
KARS 200355Z 18009KT 10/02 A2984 RMK A01 T00980020  RH  059%=      5-min Rain = 0
KARS 200400Z 18009KT 10/02 A2984 RMK A01 T00980020  RH  059%=      5-min Rain = 0
KARS 200405Z 18009KT 10/02 A2984 RMK A01 T00990021  RH  059%=      5-min Rain = 0
KARS 200410Z 18009KT 10/02 A2984 RMK A01 T01030023  RH  058%=      5-min Rain = 0
KARS 200415Z 19009KT 11/03 A2984 RMK A01 T01080025  RH  057%=      5-min Rain = 0
KARS 200420Z 19011KT 12/03 A2984 RMK A01 T01160028  RH  056%=      5-min Rain = 0
KARS 200425Z 19011KT 12/03 A2983 RMK A01 T01230031  RH  054%=      5-min Rain = 0
KARS 200430Z 19012KT 13/03 A2983 RMK A01 T01260033  RH  054%=      5-min Rain = 0
KARS 200435Z 19012KT 13/04 A2983 RMK A01 T01290036  RH  054%=      5-min Rain = 0
KARS 200440Z 19012KT 13/04 A2983 RMK A01 T01320039  RH  054%=      5-min Rain = 0
KARS 200445Z 20013KT 14/04 A2983 RMK A01 T01350043  RH  055%=      5-min Rain = 0
KARS 200450Z 19012KT 14/05 A2983 RMK A01 T01370046  RH  055%=      5-min Rain = 0
KARS 200455Z 19012KT 14/05 A2983 RMK A01 T01380048  RH  056%=      5-min Rain = 0
KARS 200500Z 19012KT 14/05 A2983 RMK A01 T01410051  RH  056%=      5-min Rain = 0
KARS 200505Z 20012KT 14/05 A2984 RMK A01 T01430053  RH  056%=      5-min Rain = 0
KARS 200510Z 20012KT 14/06 A2984 RMK A01 T01440055  RH  056%=      5-min Rain = 0
KARS 200515Z 20012KT 15/06 A2984 RMK A01 T01450056  RH  056%=      5-min Rain = 0
KARS 200520Z 20012KT 15/06 A2984 RMK A01 T01480058  RH  056%=      5-min Rain = 0
KARS 200525Z 20013KT 15/06 A2984 RMK A01 T01500059  RH  056%=      5-min Rain = 0
KARS 200530Z 20013G18KT 15/06 A2985 RMK A01 T01510060  RH  056%=      5-min Rain = 0
KARS 200535Z 20013G18KT 15/06 A2984 RMK A01 T01530061  RH  056%=      5-min Rain = 0
KARS 200540Z 20012KT 15/06 A2984 RMK A01 T01510061  RH  056%=      5-min Rain = 0
KARS 200545Z 20013KT 15/06 A2984 RMK A01 T01500062  RH  057%=      5-min Rain = 0
KARS 200550Z 20012KT 15/06 A2984 RMK A01 T01500062  RH  057%=      5-min Rain = 0
KARS 200555Z 20012KT 15/06 A2984 RMK A01 T01500063  RH  057%=      5-min Rain = 0

Page generated in 0.0089 seconds.